createdAt,value
2022-10-09T03:01:47.161Z,99.90
2022-10-09T03:04:14.132Z,99.90
2022-10-09T03:06:40.976Z,99.90
2022-10-09T03:09:08.043Z,99.90
2022-10-09T03:11:34.975Z,99.90
2022-10-09T03:14:01.845Z,99.90
2022-10-09T03:16:30.002Z,99.90
2022-10-09T03:18:58.551Z,99.90
2022-10-09T03:21:26.767Z,99.90
2022-10-09T03:23:54.317Z,99.90
2022-10-09T03:26:23.259Z,99.90
2022-10-09T03:28:51.599Z,99.90
2022-10-09T03:31:50.518Z,99.90
2022-10-09T03:34:10.575Z,99.90
2022-10-09T03:36:37.477Z,99.90
2022-10-09T03:39:04.533Z,99.90
2022-10-09T03:41:31.457Z,99.90
2022-10-09T03:43:58.300Z,99.90
2022-10-09T03:46:25.220Z,99.90
2022-10-09T03:48:52.174Z,99.90
2022-10-09T03:51:20.410Z,99.90
2022-10-09T03:53:47.280Z,99.90
2022-10-09T03:56:14.180Z,99.90
2022-10-09T03:58:41.034Z,99.90
2022-10-09T04:01:08.099Z,99.90
2022-10-09T04:03:35.083Z,99.90
2022-10-09T04:06:01.940Z,99.90
2022-10-09T04:08:30.193Z,99.90
2022-10-09T04:10:58.320Z,99.90
2022-10-09T04:13:25.246Z,99.90
2022-10-09T04:15:52.297Z,99.90
2022-10-09T04:18:19.232Z,99.90
2022-10-09T04:20:49.438Z,99.90
2022-10-09T04:23:16.359Z,99.90
2022-10-09T04:25:44.673Z,99.90
2022-10-09T04:28:11.885Z,99.90
2022-10-09T04:30:38.928Z,99.90
2022-10-09T04:33:10.336Z,99.90
2022-10-09T04:35:41.886Z,99.90
2022-10-09T04:38:08.795Z,99.90
2022-10-09T04:40:35.686Z,99.90
2022-10-09T04:43:04.142Z,99.90
2022-10-09T04:45:31.065Z,99.90
2022-10-09T04:47:58.111Z,99.90
2022-10-09T04:50:25.400Z,99.90
2022-10-09T04:52:58.250Z,99.90
2022-10-09T04:55:25.538Z,99.90
2022-10-09T04:57:52.380Z,99.90
2022-10-09T05:00:20.617Z,99.90
2022-10-09T05:02:47.745Z,99.90
2022-10-09T05:05:15.085Z,99.90
2022-10-09T05:07:41.954Z,99.90
2022-10-09T05:10:09.216Z,99.90
2022-10-09T05:12:36.050Z,99.90
2022-10-09T05:15:03.013Z,99.90
2022-10-09T05:17:31.321Z,99.90
2022-10-09T05:19:58.303Z,99.90
2022-10-09T05:22:25.257Z,99.90
2022-10-09T05:24:52.121Z,99.90
2022-10-09T05:27:18.999Z,99.90
2022-10-09T05:29:45.897Z,99.90
2022-10-09T05:32:12.864Z,99.90
2022-10-09T05:34:41.175Z,99.90
2022-10-09T05:37:08.021Z,99.90
2022-10-09T05:39:35.947Z,99.90
2022-10-09T05:42:03.150Z,99.90
2022-10-09T05:44:30.021Z,99.90
2022-10-09T05:46:56.870Z,99.90
2022-10-09T05:49:24.036Z,99.90
2022-10-09T05:51:52.320Z,99.90
2022-10-09T05:54:19.288Z,99.90
2022-10-09T05:56:46.200Z,99.90
2022-10-09T05:59:15.562Z,99.90
2022-10-09T06:01:44.445Z,99.90
2022-10-09T06:04:14.415Z,99.90
2022-10-09T06:06:41.914Z,99.90
2022-10-09T06:09:11.095Z,99.90
2022-10-09T06:11:39.979Z,99.90
2022-10-09T06:14:08.102Z,99.90
2022-10-09T06:16:36.816Z,99.90
2022-10-09T06:19:05.124Z,99.90
2022-10-09T06:21:32.571Z,99.90
2022-10-09T06:24:01.452Z,99.90
2022-10-09T06:26:30.923Z,99.90
2022-10-09T06:28:58.946Z,99.90
2022-10-09T06:31:27.754Z,99.90
2022-10-09T06:33:55.512Z,99.90
2022-10-09T06:36:24.188Z,99.90
2022-10-09T06:38:51.738Z,99.90
2022-10-09T06:41:20.357Z,99.90
2022-10-09T06:43:51.200Z,99.90
2022-10-09T06:46:18.463Z,99.90
2022-10-09T06:48:45.524Z,99.90
2022-10-09T06:51:14.565Z,99.90
2022-10-09T06:53:43.410Z,99.90
2022-10-09T06:56:11.267Z,99.90
2022-10-09T06:58:39.297Z,99.90
2022-10-09T07:01:10.227Z,99.90
2022-10-09T07:03:38.849Z,99.90
2022-10-09T07:06:08.036Z,99.90
2022-10-09T07:08:34.964Z,99.90
2022-10-09T07:11:08.499Z,99.90
2022-10-09T07:13:35.435Z,99.90
2022-10-09T07:16:04.799Z,99.90
2022-10-09T07:18:34.167Z,99.90
2022-10-09T07:21:02.277Z,99.90
2022-10-09T07:23:30.126Z,99.90
2022-10-09T07:25:57.428Z,99.90
2022-10-09T07:28:25.136Z,99.90
2022-10-09T07:30:52.253Z,99.90
2022-10-09T07:33:19.224Z,99.90
2022-10-09T07:35:54.315Z,99.90
2022-10-09T07:38:21.517Z,99.90
2022-10-09T07:40:48.416Z,99.90
2022-10-09T07:43:15.953Z,99.90
2022-10-09T07:45:42.935Z,99.20
2022-10-09T07:48:09.877Z,97.60
2022-10-09T07:50:37.116Z,95.50
2022-10-09T07:53:05.618Z,94.30
2022-10-09T07:55:32.509Z,93.20
2022-10-09T07:57:59.409Z,92.60
2022-10-09T08:00:26.276Z,91.70
2022-10-09T08:02:53.563Z,91.40
2022-10-09T08:05:20.754Z,90.90
2022-10-09T08:07:49.524Z,89.50
2022-10-09T08:10:17.989Z,87.50
2022-10-09T08:12:45.458Z,86.90
2022-10-09T08:15:13.184Z,83.90
2022-10-09T08:17:40.220Z,83.10
2022-10-09T08:20:08.217Z,83.10
2022-10-09T08:22:35.121Z,80.50
2022-10-09T08:25:02.023Z,80.00
2022-10-09T08:27:30.271Z,78.60
2022-10-09T08:29:57.121Z,77.60
2022-10-09T08:32:24.081Z,77.00
2022-10-09T08:34:52.642Z,76.80
2022-10-09T08:37:19.526Z,73.80
2022-10-09T08:39:46.330Z,74.40
2022-10-09T08:42:26.730Z,74.10
2022-10-09T08:44:55.223Z,72.30
2022-10-09T08:47:25.556Z,70.50
2022-10-09T08:49:56.977Z,70.90
2022-10-09T08:52:37.749Z,69.60
2022-10-09T08:55:14.491Z,69.70
2022-10-09T08:57:41.516Z,68.60
2022-10-09T09:00:16.922Z,67.00
2022-10-09T09:03:09.054Z,65.60
2022-10-09T09:05:44.388Z,64.40
2022-10-09T09:08:23.581Z,63.40
2022-10-09T09:10:54.942Z,62.90
2022-10-09T09:13:44.053Z,62.90
2022-10-09T09:16:23.103Z,63.80
2022-10-09T09:19:00.119Z,60.50
2022-10-09T09:21:39.683Z,61.60
2022-10-09T09:24:14.918Z,61.50
2022-10-09T09:26:45.173Z,61.80
2022-10-09T09:29:17.289Z,62.60
2022-10-09T09:31:47.713Z,62.70
2022-10-09T09:34:20.335Z,63.00
2022-10-09T09:36:50.208Z,63.20
2022-10-09T09:42:13.542Z,66.10
2022-10-09T09:44:44.949Z,65.50
2022-10-09T09:47:23.954Z,66.20
2022-10-09T09:49:56.471Z,65.70
2022-10-09T09:52:26.328Z,65.20
2022-10-09T09:54:55.548Z,65.70
2022-10-09T09:57:29.993Z,66.90
2022-10-09T10:00:08.139Z,67.30
2022-10-09T10:02:38.213Z,67.10
2022-10-09T10:05:16.937Z,66.90
2022-10-09T10:07:44.046Z,66.00
2022-10-09T10:10:18.737Z,67.50
2022-10-09T10:12:54.397Z,67.40
2022-10-09T10:15:24.845Z,67.00
2022-10-09T10:17:59.873Z,66.70
2022-10-09T10:20:27.871Z,67.40
2022-10-09T10:22:57.591Z,66.70
2022-10-09T10:25:28.736Z,66.10
2022-10-09T10:28:00.485Z,66.60
2022-10-09T10:30:27.791Z,67.20
2022-10-09T10:33:02.334Z,68.50
2022-10-09T10:35:33.874Z,67.20
2022-10-09T10:38:06.258Z,66.00
2022-10-09T10:40:37.621Z,66.20
2022-10-09T10:43:13.949Z,66.90
2022-10-09T10:45:52.639Z,67.10
2022-10-09T10:48:25.204Z,67.00
2022-10-09T10:51:06.571Z,65.70
2022-10-09T10:53:45.072Z,66.50
2022-10-09T10:56:19.134Z,74.50
2022-10-09T10:58:54.658Z,67.80
2022-10-09T11:01:31.184Z,71.50
2022-10-09T11:04:28.598Z,68.30
2022-10-09T11:07:02.324Z,71.10
2022-10-09T11:09:39.547Z,72.50
2022-10-09T11:12:24.589Z,71.90
2022-10-09T11:15:07.649Z,67.80
2022-10-09T11:17:44.652Z,71.80
2022-10-09T11:20:30.407Z,67.80
2022-10-09T11:23:08.400Z,71.30
2022-10-09T11:25:45.807Z,70.20
2022-10-09T11:28:15.705Z,68.70
2022-10-09T11:30:48.384Z,69.10
2022-10-09T11:33:27.690Z,66.20
2022-10-09T11:36:02.955Z,72.70
2022-10-09T11:38:35.186Z,71.50
2022-10-09T11:41:07.328Z,70.30
2022-10-09T11:43:51.936Z,72.50
2022-10-09T11:46:25.981Z,69.10
2022-10-09T11:49:04.681Z,71.00
2022-10-09T11:51:43.268Z,72.20
2022-10-09T11:54:14.713Z,68.90
2022-10-09T11:56:53.245Z,69.80
2022-10-09T11:59:23.529Z,72.50
2022-10-09T12:01:50.414Z,73.80
2022-10-09T12:04:43.573Z,68.10
2022-10-09T12:07:13.448Z,74.00
2022-10-09T12:09:43.436Z,72.30
2022-10-09T12:12:22.653Z,68.00
2022-10-09T12:14:51.317Z,70.40
2022-10-09T12:17:34.278Z,73.80
2022-10-09T12:20:08.654Z,70.80
2022-10-09T12:22:41.280Z,71.90
2022-10-09T12:25:20.247Z,70.70
2022-10-09T12:27:52.233Z,75.20
2022-10-09T12:30:21.133Z,68.90
2022-10-09T12:32:54.023Z,70.00
2022-10-09T12:35:25.092Z,70.30
2022-10-09T12:37:53.543Z,71.30
2022-10-09T12:40:23.496Z,70.20
2022-10-09T12:42:53.370Z,72.00
2022-10-09T12:45:24.391Z,74.00
2022-10-09T12:47:52.340Z,74.80
2022-10-09T12:50:24.193Z,69.10
2022-10-09T12:52:54.153Z,73.50
2022-10-09T12:55:26.278Z,74.40
2022-10-09T12:57:55.173Z,68.60
2022-10-09T13:00:22.235Z,71.20
2022-10-09T13:02:49.559Z,74.60
2022-10-09T13:05:16.965Z,71.50
2022-10-09T13:07:52.286Z,74.60
2022-10-09T13:10:23.726Z,71.60
2022-10-09T13:12:53.171Z,75.10
2022-10-09T13:15:30.899Z,72.40
2022-10-09T13:17:57.988Z,72.90
2022-10-09T13:20:27.898Z,69.90
2022-10-09T13:22:56.203Z,76.10
2022-10-09T13:25:25.177Z,74.50
2022-10-09T13:27:52.461Z,77.30
2022-10-09T13:30:21.299Z,75.50
2022-10-09T13:32:48.204Z,75.50
2022-10-09T13:35:15.354Z,76.20
2022-10-09T13:37:42.283Z,77.60
2022-10-09T13:40:13.745Z,74.20
2022-10-09T13:42:42.801Z,71.20
2022-10-09T13:45:10.994Z,75.10
2022-10-09T13:47:38.072Z,77.40
2022-10-09T13:50:05.586Z,78.30
2022-10-09T13:52:32.483Z,78.60
2022-10-09T13:54:59.348Z,74.20
2022-10-09T13:57:26.199Z,74.70
2022-10-09T13:59:54.428Z,76.80
2022-10-09T14:02:21.359Z,79.70
2022-10-09T14:04:48.260Z,76.10
2022-10-09T14:07:15.223Z,78.90
2022-10-09T14:09:42.181Z,80.80
2022-10-09T14:12:09.213Z,80.00
2022-10-09T14:14:36.116Z,76.20
2022-10-09T14:17:04.427Z,76.80
2022-10-09T14:19:31.470Z,81.20
2022-10-09T14:21:58.616Z,79.70
2022-10-09T14:24:25.606Z,79.20
2022-10-09T14:26:52.472Z,79.00
2022-10-09T14:29:19.734Z,76.90
2022-10-09T14:31:49.183Z,80.50
2022-10-09T14:34:17.524Z,77.00
2022-10-09T14:36:44.453Z,79.20
2022-10-09T14:39:11.694Z,82.00
2022-10-09T14:41:40.313Z,80.70
2022-10-09T14:44:08.773Z,80.10
2022-10-09T14:46:37.773Z,78.80
2022-10-09T14:49:07.868Z,82.00
2022-10-09T14:51:37.768Z,79.40
2022-10-09T14:54:05.898Z,81.60
2022-10-09T14:56:33.100Z,81.10
2022-10-09T14:59:01.040Z,83.00
2022-10-09T15:01:29.537Z,81.80
2022-10-09T15:03:56.607Z,81.00
2022-10-09T15:06:27.651Z,81.00
2022-10-09T15:09:03.105Z,82.80
2022-10-09T15:11:33.825Z,86.50
2022-10-09T15:14:00.667Z,85.70
2022-10-09T15:16:27.476Z,82.50
2022-10-09T15:18:55.407Z,87.20
2022-10-09T15:21:25.025Z,84.20
2022-10-09T15:23:55.668Z,84.40
2022-10-09T15:26:23.445Z,84.60
2022-10-09T15:28:50.313Z,83.70
2022-10-09T15:31:22.058Z,83.50
2022-10-09T15:33:49.770Z,83.30
2022-10-09T15:36:16.627Z,82.70
2022-10-09T15:38:43.516Z,82.30
2022-10-09T15:41:20.351Z,82.50
2022-10-09T15:43:47.387Z,82.20
2022-10-09T15:46:14.613Z,82.30
2022-10-09T15:48:41.495Z,82.20
2022-10-09T15:51:13.275Z,82.90
2022-10-09T15:53:41.422Z,83.90
2022-10-09T15:56:09.896Z,84.40
2022-10-09T15:58:38.209Z,85.10
2022-10-09T16:01:07.222Z,86.10
2022-10-09T16:03:37.117Z,87.00
2022-10-09T16:06:07.399Z,88.00
2022-10-09T16:08:34.705Z,88.60
2022-10-09T16:11:05.359Z,89.10
2022-10-09T16:13:34.956Z,89.40
2022-10-09T16:16:05.883Z,89.90
2022-10-09T16:18:32.947Z,89.70
2022-10-09T16:21:04.234Z,90.10
2022-10-09T16:23:31.193Z,90.00
2022-10-09T16:25:59.716Z,90.00
2022-10-09T16:28:27.314Z,90.20
2022-10-09T16:30:54.204Z,90.30
2022-10-09T16:33:22.580Z,90.40
2022-10-09T16:35:49.490Z,90.60
2022-10-09T16:38:16.884Z,91.00
2022-10-09T16:43:34.436Z,91.50
2022-10-09T16:46:09.658Z,91.20
2022-10-09T16:48:37.939Z,91.50
2022-10-09T16:51:08.794Z,91.90
2022-10-09T16:53:35.690Z,91.90
2022-10-09T16:56:10.641Z,92.10
2022-10-09T16:58:38.036Z,92.50
2022-10-09T17:01:09.624Z,93.10
2022-10-09T17:03:41.529Z,93.30
2022-10-09T17:06:10.198Z,93.60
2022-10-09T17:08:37.204Z,93.50
2022-10-09T17:11:07.244Z,93.80
2022-10-09T17:13:34.179Z,94.00
2022-10-09T17:16:03.811Z,94.30
2022-10-09T17:18:30.800Z,94.60
2022-10-09T17:21:01.123Z,94.90
2022-10-09T17:23:27.979Z,95.10
2022-10-09T17:25:56.945Z,95.40
2022-10-09T17:28:24.317Z,95.80
2022-10-09T17:30:51.268Z,96.00
2022-10-09T17:33:19.959Z,96.30
2022-10-09T17:35:47.311Z,96.50
2022-10-09T17:38:15.526Z,96.60
2022-10-09T17:40:42.598Z,96.90
2022-10-09T17:43:09.702Z,97.10
2022-10-09T17:45:40.262Z,97.10
2022-10-09T17:48:07.860Z,97.20
2022-10-09T17:50:35.298Z,97.50
2022-10-09T17:53:02.573Z,97.70
2022-10-09T17:55:31.105Z,97.80
2022-10-09T17:57:58.303Z,97.90
2022-10-09T18:00:25.176Z,98.10
2022-10-09T18:02:52.011Z,98.20
2022-10-09T18:05:19.434Z,98.30
2022-10-09T18:07:46.314Z,98.50
2022-10-09T18:10:16.727Z,98.70
2022-10-09T18:12:45.539Z,98.80
2022-10-09T18:15:13.669Z,99.00
2022-10-09T18:17:40.781Z,99.10
2022-10-09T18:20:08.436Z,99.30
2022-10-09T18:22:36.708Z,99.50
2022-10-09T18:25:04.792Z,99.60
2022-10-09T18:27:31.769Z,99.80
2022-10-09T18:30:00.073Z,99.90
2022-10-09T18:32:27.159Z,99.90
2022-10-09T18:34:54.130Z,99.90
2022-10-09T18:37:21.050Z,99.90
2022-10-09T18:39:48.695Z,99.90
2022-10-09T18:42:15.998Z,99.90
2022-10-09T18:44:43.281Z,99.90
2022-10-09T18:47:16.848Z,99.90
2022-10-09T18:49:48.742Z,99.90
2022-10-09T18:52:16.427Z,99.90
2022-10-09T18:54:47.384Z,99.90
2022-10-09T18:57:14.846Z,99.90
2022-10-09T18:59:42.343Z,99.90
2022-10-09T19:02:09.252Z,99.90
2022-10-09T19:04:37.433Z,99.90
2022-10-09T19:07:04.280Z,99.90
2022-10-09T19:09:31.437Z,99.90
2022-10-09T19:11:58.306Z,99.90
2022-10-09T19:14:25.236Z,99.90
2022-10-09T19:16:52.109Z,99.90
2022-10-09T19:19:19.413Z,99.90
2022-10-09T19:21:47.664Z,99.90
2022-10-09T19:24:14.749Z,99.90
2022-10-09T19:26:42.203Z,99.90
2022-10-09T19:29:09.218Z,99.90
2022-10-09T19:31:36.659Z,99.90
2022-10-09T19:34:04.691Z,99.90
2022-10-09T19:36:34.180Z,99.90
2022-10-09T19:39:03.509Z,99.90
2022-10-09T19:41:30.462Z,99.90
2022-10-09T19:43:58.067Z,99.90
2022-10-09T19:46:25.052Z,99.90
2022-10-09T19:48:52.073Z,99.90
2022-10-09T19:51:21.048Z,99.90
2022-10-09T19:53:48.660Z,99.90
2022-10-09T19:56:19.005Z,99.90
2022-10-09T19:58:47.559Z,99.90
2022-10-09T20:01:16.601Z,99.90
2022-10-09T20:03:43.750Z,99.90
2022-10-09T20:06:11.443Z,99.90
2022-10-09T20:08:40.348Z,99.90
2022-10-09T20:11:08.652Z,99.90
2022-10-09T20:13:38.486Z,99.90
2022-10-09T20:16:08.257Z,99.90
2022-10-09T20:18:35.633Z,99.90
2022-10-09T20:21:02.518Z,99.90
2022-10-09T20:23:29.390Z,99.90
2022-10-09T20:26:00.633Z,99.90
2022-10-09T20:28:27.727Z,99.90
2022-10-09T20:31:00.860Z,99.90
2022-10-09T20:33:28.273Z,99.90
2022-10-09T20:35:55.095Z,99.90
2022-10-09T20:38:25.525Z,99.90
2022-10-09T20:40:52.822Z,99.90
2022-10-09T20:43:19.833Z,99.90
2022-10-09T20:45:46.836Z,99.90
2022-10-09T20:48:15.108Z,99.90
2022-10-09T20:50:42.273Z,99.90
2022-10-09T20:53:11.965Z,99.90
2022-10-09T20:55:38.814Z,99.90
2022-10-09T20:58:05.736Z,99.90
2022-10-09T21:00:32.649Z,99.90
2022-10-09T21:02:59.600Z,99.90
2022-10-09T21:05:27.837Z,99.90
2022-10-09T21:07:54.665Z,99.90
2022-10-09T21:10:21.528Z,99.90
2022-10-09T21:12:48.560Z,99.90
2022-10-09T21:15:15.685Z,99.90
2022-10-09T21:17:42.526Z,99.90
2022-10-09T21:20:09.809Z,99.90
2022-10-09T21:22:37.947Z,99.90
2022-10-09T21:25:05.595Z,99.90
2022-10-09T21:27:32.377Z,99.90
2022-10-09T21:29:59.210Z,99.90
2022-10-09T21:32:25.995Z,99.90
2022-10-09T21:34:52.808Z,99.90
2022-10-09T21:37:22.157Z,99.90
2022-10-09T21:39:50.626Z,99.90
2022-10-09T21:42:17.427Z,99.90
2022-10-09T21:44:44.220Z,99.90
2022-10-09T21:47:16.226Z,99.90
2022-10-09T21:49:43.030Z,99.90
2022-10-09T21:52:10.241Z,99.90
2022-10-09T21:54:37.022Z,99.90
2022-10-09T21:57:05.268Z,99.90
2022-10-09T21:59:32.125Z,99.90
2022-10-09T22:01:58.922Z,99.90
2022-10-09T22:04:25.720Z,99.90
2022-10-09T22:06:52.543Z,99.90
2022-10-09T22:09:19.377Z,99.90
2022-10-09T22:11:46.265Z,99.90
2022-10-09T22:14:15.303Z,99.90
2022-10-09T22:16:42.129Z,99.90
2022-10-09T22:19:08.910Z,99.90
2022-10-09T22:21:35.691Z,99.90
2022-10-09T22:24:03.055Z,99.90
2022-10-09T22:26:30.244Z,99.90
2022-10-09T22:28:57.074Z,99.90
2022-10-09T22:31:26.897Z,99.90
2022-10-09T22:33:55.588Z,99.90
2022-10-09T22:36:25.757Z,99.90
2022-10-09T22:38:53.872Z,99.90
2022-10-09T22:41:22.631Z,99.90
2022-10-09T22:43:51.637Z,99.90
2022-10-09T22:46:21.484Z,99.90
2022-10-09T22:48:50.495Z,99.90
2022-10-09T22:51:18.982Z,99.90
2022-10-09T22:53:46.992Z,99.90
2022-10-09T22:56:16.496Z,99.90
2022-10-09T22:58:43.475Z,99.90
